Météo Nord-Pas-de-Calais   La météo au plus près de chez vous

Station météorologique

Observations météo à Bernay (27056)

27056003 166 m Dernier relevé à 19:18
19.6°C
Humidité 48 % Vent 6.5 km/h

Journée consultée

Mardi 1 Septembre 2026

Synthèse de la journée

Périodes de référence en UTC

Température maximale

22.6°C

à 19:00

06h 06h

Température minimale

11.4°C

à 07:36

18h 18h

Rafale maximale

26 km/h

à 13:18

00h 00h

Précipitations

0 mm

Cumul quotidien

06h 06h

Ensoleillement

8h 45 mins

Durée quotidienne

00h 00h

Graphiques de la journée

Heure locale Réduire

Données détaillées

Relevés météo

Pas de 6 minutes Afficher les relevés infra-horaires
Relevés météo détaillés à Bernay pour le Mardi 1 Septembre 2026
Heure Température °C Point de rosée °C Humidité % Vent moyen (raf.), km/h Précipitations mm Ensoleillement min Rayonnement global W/m²
19:18 19.6 °C 10.3 °C 55 % 10 km/h (15 km/h) 0 mm0 mm 0 min 19.8 W/m²
19:12 19.7 °C 10.4 °C 55 % 10 km/h (15 km/h) 0 mm0 mm 0 min 18.7 W/m²
19:06 19.8 °C 10.5 °C 55 % 14 km/h (18 km/h) 0 mm0 mm 0 min 19 W/m²
19:00 20.1 °C 10.2 °C 53 % 14 km/h (18 km/h) 0 mm0 mm 0 min 30.1 W/m²
18:54 20.5 °C 10.3 °C 52 % 11 km/h (18 km/h) 0 mm0 mm 0 min 36.7 W/m²
18:48 20.9 °C 10.4 °C 51 % 5 km/h (15 km/h) 0 mm0 mm 0 min 38.8 W/m²
18:42 21.3 °C 9.8 °C 48 % 5 km/h (10 km/h) 0 mm0 mm 0 min 43.8 W/m²
18:36 22 °C 10.2 °C 47 % 4 km/h (10 km/h) 0 mm0 mm 4 min 97.1 W/m²
18:30 22.3 °C 10.1 °C 46 % 3 km/h (8 km/h) 0 mm0 mm 6 min 136.4 W/m²
18:24 21.8 °C 9.7 °C 46 % 5 km/h (8 km/h) 0 mm0 mm 6 min 137.6 W/m²
18:18 21.1 °C 9.7 °C 48 % 6 km/h (13 km/h) 0 mm0 mm 3 min 85.4 W/m²
18:12 21.1 °C 8.7 °C 45 % 10 km/h (18 km/h) 0 mm0 mm 1 min 61.9 W/m²
18:06 22 °C 9.5 °C 45 % 8 km/h (17 km/h) 0 mm0 mm 6 min 148.1 W/m²
18:00 22.1 °C 9.6 °C 45 % 6 km/h (13 km/h) 0 mm0 mm 6 min 164.3 W/m²
17:54 21.8 °C 10 °C 47 % 8 km/h (13 km/h) 0 mm0 mm 6 min 171.1 W/m²
17:48 21.7 °C 10.5 °C 49 % 7 km/h (13 km/h) 0 mm0 mm 6 min 163.8 W/m²
17:42 20.9 °C 9.2 °C 47 % 9 km/h (15 km/h) 0 mm0 mm 2 min 90.8 W/m²
17:36 21.2 °C 9.1 °C 46 % 10 km/h (17 km/h) 0 mm0 mm 2 min 91.8 W/m²
17:30 21.4 °C 9.3 °C 46 % 10 km/h (17 km/h) 0 mm0 mm 6 min 186.7 W/m²
17:24 20.8 °C 9.1 °C 47 % 9 km/h (17 km/h) 0 mm0 mm 0 min 75.7 W/m²
17:18 21.3 °C 9.8 °C 48 % 11 km/h (24 km/h) 0 mm0 mm 2 min 98 W/m²
17:12 21.7 °C 9.2 °C 45 % 13 km/h (24 km/h) 0 mm0 mm 6 min 196 W/m²
17:06 21.8 °C 9 °C 44 % 12 km/h (21 km/h) 0 mm0 mm 6 min 220.8 W/m²
17:00 22.1 °C 10.3 °C 47 % 12 km/h (23 km/h) 0 mm0 mm 6 min 247.5 W/m²
16:54 22 °C 9.8 °C 46 % 9 km/h (16 km/h) 0 mm0 mm 6 min 257.6 W/m²
16:48 21.9 °C 9.4 °C 45 % 11 km/h (22 km/h) 0 mm0 mm 6 min 256.2 W/m²
16:42 22.3 °C 9.8 °C 45 % 9 km/h (20 km/h) 0 mm0 mm 6 min 257.7 W/m²
16:36 22 °C 10.2 °C 47 % 7 km/h (19 km/h) 0 mm0 mm 6 min 262.4 W/m²
16:30 21.3 °C 9.2 °C 46 % 11 km/h (19 km/h) 0 mm0 mm 6 min 263.6 W/m²
16:24 21.6 °C 9.2 °C 45 % 11 km/h (19 km/h) 0 mm0 mm 6 min 257 W/m²
16:18 21.5 °C 9.4 °C 46 % 10 km/h (20 km/h) 0 mm0 mm 6 min 245.9 W/m²
16:12 21 °C 9.6 °C 48 % 12 km/h (21 km/h) 0 mm0 mm 3 min 184.9 W/m²
16:06 20.8 °C 10 °C 50 % 6 km/h (13 km/h) 0 mm0 mm 5 min 195 W/m²
16:00 20.4 °C 9.6 °C 50 % 8 km/h (18 km/h) 0 mm0 mm 0 min 79.7 W/m²
15:54 20.7 °C 9 °C 47 % 9 km/h (18 km/h) 0 mm0 mm 2 min 147.4 W/m²
15:48 20.7 °C 9.3 °C 48 % 9 km/h (20 km/h) 0 mm0 mm 5 min 215.1 W/m²
15:42 20.5 °C 9.4 °C 49 % 11 km/h (23 km/h) 0 mm0 mm 1 min 132.2 W/m²
15:36 21.3 °C 9.8 °C 48 % 10 km/h (23 km/h) 0 mm0 mm 6 min 268.4 W/m²
15:30 20.6 °C 9.2 °C 48 % 13 km/h (21 km/h) 0 mm0 mm 4 min 227.2 W/m²
15:24 20.7 °C 9.9 °C 50 % 13 km/h (24 km/h) 0 mm0 mm 3 min 181.3 W/m²
15:18 20.9 °C 9.8 °C 49 % 12 km/h (22 km/h) 0 mm0 mm 5 min 228.2 W/m²
15:12 21 °C 9.3 °C 47 % 9 km/h (17 km/h) 0 mm0 mm 6 min 252.7 W/m²
15:06 21.1 °C 10 °C 49 % 10 km/h (21 km/h) 0 mm0 mm 6 min 272.6 W/m²
15:00 20.8 °C 9.7 °C 49 % 10 km/h (21 km/h) 0 mm0 mm 6 min 289.3 W/m²
14:54 20.6 °C 10.4 °C 52 % 8 km/h (19 km/h) 0 mm0 mm 6 min 295.2 W/m²
14:48 19.6 °C 9.8 °C 53 % 9 km/h (18 km/h) 0 mm0 mm 1 min 139 W/m²
14:42 19.9 °C 9.2 °C 50 % 6 km/h (14 km/h) 0 mm0 mm 1 min 120.9 W/m²
14:36 20 °C 9 °C 49 % 8 km/h (15 km/h) 0 mm0 mm 3 min 201.8 W/m²
14:30 19.4 °C 9.3 °C 52 % 9 km/h (15 km/h) 0 mm0 mm 0 min 100.1 W/m²
14:24 19.4 °C 8.4 °C 49 % 12 km/h (19 km/h) 0 mm0 mm 0 min 86.2 W/m²
14:18 19.6 °C 9.5 °C 52 % 11 km/h (19 km/h) 0 mm0 mm 0 min 118 W/m²
14:12 19.7 °C 9.3 °C 51 % 12 km/h (24 km/h) 0 mm0 mm 0 min 91 W/m²
14:06 20.6 °C 9.8 °C 50 % 13 km/h (24 km/h) 0 mm0 mm 6 min 290.8 W/m²
14:00 20.3 °C 9.8 °C 51 % 8 km/h (16 km/h) 0 mm0 mm 6 min 294.3 W/m²
13:54 20 °C 9.3 °C 50 % 9 km/h (21 km/h) 0 mm0 mm 6 min 291.2 W/m²
13:48 19.5 °C 9.4 °C 52 % 10 km/h (21 km/h) 0 mm0 mm 5 min 237.9 W/m²
13:42 19 °C 8.9 °C 52 % 10 km/h (17 km/h) 0 mm0 mm 0 min 72.4 W/m²
13:36 19.3 °C 10 °C 55 % 13 km/h (18 km/h) 0 mm0 mm 4 min 211.5 W/m²
13:30 18.7 °C 10 °C 57 % 13 km/h (20 km/h) 0 mm0 mm 0 min 68.7 W/m²
13:24 19.2 °C 9.7 °C 54 % 12 km/h (26 km/h) 0 mm0 mm 0 min 87.2 W/m²
13:18 19.8 °C 10.2 °C 54 % 10 km/h (26 km/h) 0 mm0 mm 3 min 197.2 W/m²
13:12 20.3 °C 10.4 °C 53 % 8 km/h (17 km/h) 0 mm0 mm 6 min 320.5 W/m²
13:06 19.7 °C 10.4 °C 55 % 11 km/h (19 km/h) 0 mm0 mm 6 min 293.8 W/m²
13:00 19.4 °C 10.1 °C 55 % 12 km/h (20 km/h) 0 mm0 mm 6 min 247.8 W/m²
12:54 19.9 °C 10 °C 53 % 10 km/h (20 km/h) 0 mm0 mm 6 min 278.5 W/m²
12:48 19.4 °C 10.1 °C 55 % 10 km/h (20 km/h) 0 mm0 mm 6 min 285.5 W/m²
12:42 19.4 °C 10.4 °C 56 % 11 km/h (25 km/h) 0 mm0 mm 6 min 275.8 W/m²
12:36 19.3 °C 9.8 °C 54 % 11 km/h (17 km/h) 0 mm0 mm 5 min 243.5 W/m²
12:30 19.2 °C 10.2 °C 56 % 10 km/h (17 km/h) 0 mm0 mm 5 min 239.7 W/m²
12:24 19.1 °C 9.8 °C 55 % 10 km/h (20 km/h) 0 mm0 mm 6 min 264.3 W/m²
12:18 19 °C 10.3 °C 57 % 9 km/h (20 km/h) 0 mm0 mm 6 min 256 W/m²
12:12 18.2 °C 9.3 °C 56 % 12 km/h (22 km/h) 0 mm0 mm 3 min 148 W/m²
12:06 19 °C 10.3 °C 57 % 12 km/h (23 km/h) 0 mm0 mm 6 min 268.1 W/m²
12:00 18.7 °C 10.5 °C 59 % 12 km/h (20 km/h) 0 mm0 mm 4 min 191.5 W/m²
11:54 18.8 °C 10.4 °C 58 % 13 km/h (20 km/h) 0 mm0 mm 6 min 248.8 W/m²
11:48 18.8 °C 11.1 °C 61 % 13 km/h (24 km/h) 0 mm0 mm 6 min 242.8 W/m²
11:42 18.6 °C 10.4 °C 59 % 12 km/h (24 km/h) 0 mm0 mm 6 min 232.8 W/m²
11:36 18.4 °C 11 °C 62 % 10 km/h (18 km/h) 0 mm0 mm 6 min 234.5 W/m²
11:30 18.3 °C 11.4 °C 64 % 10 km/h (19 km/h) 0 mm0 mm 6 min 236.6 W/m²
11:24 18.3 °C 11.4 °C 64 % 10 km/h (19 km/h) 0 mm0 mm 6 min 228.3 W/m²
11:18 18.1 °C 11.4 °C 65 % 10 km/h (17 km/h) 0 mm0 mm 6 min 216.1 W/m²
11:12 18 °C 12 °C 68 % 12 km/h (19 km/h) 0 mm0 mm 5 min 189.3 W/m²
11:06 17.8 °C 11.1 °C 65 % 11 km/h (20 km/h) 0 mm0 mm 5 min 176.7 W/m²
11:00 17.7 °C 11.5 °C 67 % 11 km/h (20 km/h) 0 mm0 mm 5 min 177.7 W/m²
10:54 17.7 °C 11.5 °C 67 % 11 km/h (17 km/h) 0 mm0 mm 6 min 191 W/m²
10:48 17.3 °C 11.8 °C 70 % 12 km/h (19 km/h) 0 mm0 mm 6 min 185.1 W/m²
10:42 17.2 °C 11.7 °C 70 % 12 km/h (19 km/h) 0 mm0 mm 6 min 180.7 W/m²
10:36 17.3 °C 11.8 °C 70 % 11 km/h (16 km/h) 0 mm0 mm 6 min 175 W/m²
10:30 17 °C 11.9 °C 72 % 11 km/h (15 km/h) 0 mm0 mm 6 min 169.6 W/m²
10:24 16.9 °C 12 °C 73 % 12 km/h (17 km/h) 0 mm0 mm 6 min 164.3 W/m²
10:18 17 °C 12.3 °C 74 % 11 km/h (17 km/h) 0 mm0 mm 6 min 158.2 W/m²
10:12 16.7 °C 12.6 °C 77 % 11 km/h (17 km/h) 0 mm0 mm 6 min 152.6 W/m²
10:06 16.5 °C 12.8 °C 79 % 11 km/h (15 km/h) 0 mm0 mm 6 min 144.8 W/m²
10:00 16.3 °C 12.6 °C 79 % 11 km/h (15 km/h) 0 mm0 mm 6 min 140.3 W/m²
09:54 16.2 °C 12.9 °C 81 % 10 km/h (16 km/h) 0 mm0 mm 6 min 134.1 W/m²
09:48 15.9 °C 13.2 °C 84 % 11 km/h (19 km/h) 0 mm0 mm 6 min 128 W/m²
09:42 15.8 °C 13.1 °C 84 % 11 km/h (17 km/h) 0 mm0 mm 6 min 122.1 W/m²
09:36 15.4 °C 12.7 °C 84 % 11 km/h (16 km/h) 0 mm0 mm 6 min 116.1 W/m²
09:30 15.4 °C 13.1 °C 86 % 9 km/h (15 km/h) 0 mm0 mm 6 min 110.1 W/m²
09:24 15.3 °C 13.1 °C 87 % 8 km/h (13 km/h) 0 mm0 mm 6 min 103.9 W/m²
09:18 15 °C 13 °C 88 % 9 km/h (15 km/h) 0 mm0 mm 6 min 97.3 W/m²
09:12 14.7 °C 12.7 °C 88 % 9 km/h (15 km/h) 0 mm0 mm 6 min 90.4 W/m²
09:06 14.6 °C 13 °C 90 % 7 km/h (13 km/h) 0 mm0 mm 6 min 84.2 W/m²
09:00 14.3 °C 12.8 °C 91 % 8 km/h (14 km/h) 0 mm0 mm 6 min 78.1 W/m²
08:54 14.1 °C 12.8 °C 92 % 8 km/h (13 km/h) 0 mm0 mm 6 min 72 W/m²
08:48 13.8 °C 12.9 °C 94 % 9 km/h (14 km/h) 0 mm0 mm 6 min 65.9 W/m²
08:42 13.5 °C 12.7 °C 95 % 8 km/h (14 km/h) 0 mm0 mm 6 min 59.9 W/m²
08:36 13.3 °C 12.5 °C 95 % 8 km/h (16 km/h) 0 mm0 mm 6 min 54.1 W/m²
08:30 13 °C 12.2 °C 95 % 8 km/h (13 km/h) 0 mm0 mm 6 min 48.4 W/m²
08:24 12.8 °C 12.3 °C 97 % 7 km/h (11 km/h) 0 mm0 mm 6 min 42.5 W/m²
08:18 12.5 °C 12 °C 97 % 7 km/h (12 km/h) 0 mm0 mm 6 min 36.7 W/m²
08:12 12.3 °C 11.8 °C 97 % 6 km/h (12 km/h) 0 mm0 mm 6 min 31 W/m²
08:06 12.2 °C 11.9 °C 98 % 5 km/h (10 km/h) 0 mm0 mm 6 min 25.4 W/m²
08:00 11.9 °C 11.6 °C 98 % 6 km/h (10 km/h) 0 mm0 mm 6 min 20 W/m²
07:54 11.7 °C 11.5 °C 99 % 6 km/h (10 km/h) 0 mm0 mm 6 min 15 W/m²
07:48 11.5 °C 11.3 °C 99 % 6 km/h (10 km/h) 0 mm0 mm 2 min 10.1 W/m²
07:42 11.5 °C 11.3 °C 99 % 6 km/h (10 km/h) 0 mm0 mm 0 min 6.7 W/m²
07:36 11.4 °C 11.2 °C 99 % 6 km/h (9 km/h) 0 mm0 mm 0 min 1.7 W/m²
07:30 11.5 °C 11.3 °C 99 % 6 km/h (9 km/h) 0 mm0 mm 0 min 0 W/m²
07:24 11.5 °C 11.3 °C 99 % 6 km/h (10 km/h) 0 mm0 mm 0 min 0 W/m²
07:18 11.5 °C 11.2 °C 98 % 6 km/h (10 km/h) 0 mm0 mm 0 min 0 W/m²
07:12 11.5 °C 11.2 °C 98 % 6 km/h (9 km/h) 0 mm0 mm 0 min 0 W/m²
07:06 11.7 °C 11.4 °C 98 % 6 km/h (12 km/h) 0 mm0 mm 0 min 0 W/m²
07:00 11.8 °C 11.5 °C 98 % 9 km/h (12 km/h) 0 mm0 mm 0 min 0 W/m²
06:54 11.8 °C 11.5 °C 98 % 9 km/h (13 km/h) 0 mm0 mm 0 min 0 W/m²
06:48 11.8 °C 11.5 °C 98 % 9 km/h (13 km/h) 0 mm0 mm 0 min 0 W/m²
06:42 11.6 °C 11.3 °C 98 % 7 km/h (12 km/h) 0 mm0 mm 0 min 0 W/m²
06:36 11.6 °C 11.3 °C 98 % 7 km/h (10 km/h) 0 mm0 mm 0 min 0 W/m²
06:30 11.6 °C 11.3 °C 98 % 7 km/h (10 km/h) 0 mm0 mm 0 min 0 W/m²
06:24 11.7 °C 11.4 °C 98 % 7 km/h (12 km/h) 0 mm0 mm 0 min 0 W/m²
06:18 11.6 °C 11.3 °C 98 % 6 km/h (12 km/h) 0 mm0 mm 0 min 0 W/m²
06:12 11.7 °C 11.4 °C 98 % 6 km/h (10 km/h) 0 mm0 mm 0 min 0 W/m²
06:06 11.7 °C 11.4 °C 98 % 5 km/h (10 km/h) 0 mm0 mm 0 min 0 W/m²
06:00 11.8 °C 11.5 °C 98 % 5 km/h (9 km/h) 0 mm0 mm 0 min 0 W/m²
05:54 11.8 °C 11.3 °C 97 % 5 km/h (9 km/h) 0 mm0 mm 0 min 0 W/m²
05:48 12 °C 11.5 °C 97 % 5 km/h (9 km/h) 0 mm0 mm 0 min 0 W/m²
05:42 12.1 °C 11.6 °C 97 % 5 km/h (9 km/h) 0 mm0 mm 0 min 0 W/m²
05:36 12.1 °C 11.6 °C 97 % 6 km/h (10 km/h) 0 mm0 mm 0 min 0 W/m²
05:30 12.2 °C 11.7 °C 97 % 6 km/h (10 km/h) 0 mm0 mm 0 min 0 W/m²
05:24 12.3 °C 11.8 °C 97 % 7 km/h (12 km/h) 0 mm0 mm 0 min 0 W/m²
05:18 12.3 °C 11.8 °C 97 % 8 km/h (12 km/h) 0 mm0 mm 0 min 0 W/m²
05:12 12.3 °C 11.8 °C 97 % 7 km/h (11 km/h) 0 mm0 mm 0 min 0 W/m²
05:06 12.3 °C 11.8 °C 97 % 7 km/h (10 km/h) 0 mm0 mm 0 min 0 W/m²
05:00 12.2 °C 11.7 °C 97 % 6 km/h (10 km/h) 0 mm0 mm 0 min 0 W/m²
04:54 12.3 °C 11.8 °C 97 % 6 km/h (14 km/h) 0 mm0 mm 0 min 0 W/m²
04:48 12.3 °C 11.8 °C 97 % 6 km/h (14 km/h) 0 mm0 mm 0 min 0 W/m²
04:42 12.3 °C 11.8 °C 97 % 7 km/h (14 km/h) 0 mm0 mm 0 min 0 W/m²
04:36 12.2 °C 11.7 °C 97 % 8 km/h (13 km/h) 0 mm0 mm 0 min 0 W/m²
04:30 12.2 °C 11.6 °C 96 % 8 km/h (13 km/h) 0 mm0 mm 0 min 0 W/m²
04:24 12.4 °C 11.8 °C 96 % 8 km/h (12 km/h) 0 mm0 mm 0 min 0 W/m²
04:18 12.5 °C 11.9 °C 96 % 7 km/h (12 km/h) 0 mm0 mm 0 min 0 W/m²
04:12 12.5 °C 11.9 °C 96 % 7 km/h (10 km/h) 0 mm0 mm 0 min 0 W/m²
04:06 12.6 °C 11.8 °C 95 % 7 km/h (10 km/h) 0 mm0 mm 0 min 0 W/m²
04:00 12.7 °C 11.9 °C 95 % 6 km/h (10 km/h) 0 mm0 mm 0 min 0 W/m²
03:54 12.7 °C 11.8 °C 94 % 6 km/h (10 km/h) 0 mm0 mm 0 min 0 W/m²
03:48 12.9 °C 12 °C 94 % 6 km/h (10 km/h) 0 mm0 mm 0 min 0 W/m²
03:42 13 °C 12.1 °C 94 % 7 km/h (11 km/h) 0 mm0 mm 0 min 0 W/m²
03:36 13 °C 12.1 °C 94 % 8 km/h (12 km/h) 0 mm0 mm 0 min 0 W/m²
03:30 13.1 °C 12.2 °C 94 % 9 km/h (14 km/h) 0 mm0 mm 0 min 0 W/m²
03:24 13 °C 12.1 °C 94 % 8 km/h (13 km/h) 0 mm0 mm 0 min 0 W/m²
03:18 13.1 °C 12.3 °C 95 % 9 km/h (13 km/h) 0 mm0 mm 0 min 0 W/m²
03:12 13.1 °C 12.2 °C 94 % 9 km/h (13 km/h) 0 mm0 mm 0 min 0 W/m²
03:06 13.1 °C 12.2 °C 94 % 8 km/h (12 km/h) 0 mm0 mm 0 min 0 W/m²
03:00 13.3 °C 12.4 °C 94 % 8 km/h (13 km/h) 0 mm0 mm 0 min 0 W/m²
02:54 13.4 °C 12.5 °C 94 % 9 km/h (14 km/h) 0 mm0 mm 0 min 0 W/m²
02:48 13.4 °C 12.3 °C 93 % 8 km/h (14 km/h) 0 mm0 mm 0 min 0 W/m²
02:42 13.4 °C 12.5 °C 94 % 9 km/h (13 km/h) 0 mm0 mm 0 min 0 W/m²
02:36 13.4 °C 12.3 °C 93 % 9 km/h (14 km/h) 0 mm0 mm 0 min 0 W/m²
02:30 13.5 °C 12.4 °C 93 % 9 km/h (14 km/h) 0 mm0 mm 0 min 0 W/m²
02:24 13.5 °C 12.4 °C 93 % 9 km/h (14 km/h) 0 mm0 mm 0 min 0 W/m²
02:18 13.6 °C 12.5 °C 93 % 9 km/h (14 km/h) 0 mm0 mm 0 min 0 W/m²
02:12 13.6 °C 12.5 °C 93 % 9 km/h (14 km/h) 0 mm0 mm 0 min 0 W/m²
02:06 13.6 °C 12.3 °C 92 % 9 km/h (14 km/h) 0 mm0 mm 0 min 0 W/m²
02:00 13.7 °C 12.4 °C 92 % 9 km/h (14 km/h) 0 mm0 mm 0 min 0 W/m²
01:54 13.8 °C 12.5 °C 92 % 9 km/h (15 km/h) 0 mm0 mm 0 min 0 W/m²
01:48 13.8 °C 12.4 °C 91 % 10 km/h (17 km/h) 0 mm0 mm 0 min 0 W/m²
01:42 14 °C 12.4 °C 90 % 10 km/h (17 km/h) 0 mm0 mm 0 min 0 W/m²
01:36 14.1 °C 12.7 °C 91 % 9 km/h (14 km/h) 0 mm0 mm 0 min 0 W/m²
01:30 14 °C 12.6 °C 91 % 10 km/h (16 km/h) 0 mm0 mm 0 min 0 W/m²
01:24 14 °C 12.7 °C 92 % 10 km/h (16 km/h) 0 mm0 mm 0 min 0 W/m²
01:18 14 °C 12.6 °C 91 % 9 km/h (14 km/h) 0 mm0 mm 0 min 0 W/m²
01:12 14.1 °C 12.7 °C 91 % 10 km/h (15 km/h) 0 mm0 mm 0 min 0 W/m²
01:06 14.2 °C 12.8 °C 91 % 9 km/h (15 km/h) 0 mm0 mm 0 min 0 W/m²
01:00 14.3 °C 12.8 °C 91 % 10 km/h (18 km/h) 0 mm0 mm 0 min 0 W/m²
00:54 14.4 °C 12.9 °C 91 % 11 km/h (18 km/h) 0 mm0 mm 0 min 0 W/m²
00:48 14.3 °C 12.8 °C 91 % 11 km/h (18 km/h) 0 mm0 mm 0 min 0 W/m²
00:42 14.2 °C 12.8 °C 91 % 10 km/h (18 km/h) 0 mm0 mm 0 min 0 W/m²
00:36 14.2 °C 12.8 °C 91 % 8 km/h (13 km/h) 0 mm0 mm 0 min 0 W/m²
00:30 14.4 °C 12.8 °C 90 % 7 km/h (13 km/h) 0 mm0 mm 0 min 0 W/m²
00:24 14.5 °C 12.9 °C 90 % 9 km/h (14 km/h) 0 mm0 mm 0 min 0 W/m²
00:18 14.5 °C 12.9 °C 90 % 8 km/h (14 km/h) 0 mm0 mm 0 min 0 W/m²
00:12 14.6 °C 12.8 °C 89 % 7 km/h (13 km/h) 0 mm0 mm 0 min 0 W/m²
00:06 14.7 °C 13.1 °C 90 % 9 km/h (17 km/h) 0 mm0 mm 0 min 0 W/m²
00:00 14.7 °C 13.1 °C 90 % 9 km/h (15 km/h) 0 mm0 mm 0 min 0 W/m²

Données via Météo-France

Relevés météo à Bernay

Cette page rassemble les observations de la station de Bernay : température, humidité, vent, précipitations et pression atmosphérique. Les graphiques facilitent le suivi de la journée, tandis que le tableau donne accès aux mesures horaires et infra-horaires disponibles.

Pour replacer ces mesures dans leur contexte, consultez la climatologie de Bernay ainsi que ses normales et records. Retrouvez aussi la carte des observations météo en temps réel.